Time;durP1;ratioP1;P1;durP2;ratioP2;P2;SDS_P1;SDS_P2;PMS_P1;PMS_P2;Temp;Humidity;BMP_temperature;BMP_pressure;BME280_temperature;BME280_humidity;BME280_pressure;Samples;Min_cycle;Max_cycle;Signal;HPM_P1;HPM_P2
2022/06/19 00:00:13;;;;;;;17.05;10.53;;;;;;;16.59;76.59;100960.13;1791880;78;20954;-87
2022/06/19 00:02:39;;;;;;;12.13;10.90;;;;;;;16.55;76.82;100962.16;1791758;78;21087;-87
2022/06/19 00:05:06;;;;;;;13.90;12.37;;;;;;;16.52;76.97;100969.05;1789474;80;20911;-86
2022/06/19 00:07:34;;;;;;;10.98;9.85;;;;;;;16.49;77.11;100963.14;1758915;80;20927;-87
2022/06/19 00:10:00;;;;;;;14.38;10.72;;;;;;;16.46;77.26;100970.84;1789789;79;20962;-86
2022/06/19 00:14:11;;;;;;;15.95;11.95;;;;;;;16.48;77.40;100965.44;1798230;79;22558;-86
2022/06/19 00:16:38;;;;;;;14.63;11.28;;;;;;;16.42;77.59;100964.11;1758642;80;20975;-84
2022/06/19 00:19:05;;;;;;;11.43;9.75;;;;;;;16.44;77.68;100965.32;1758425;80;21146;-87
2022/06/19 00:21:34;;;;;;;14.73;10.40;;;;;;;16.43;77.58;100969.78;1758466;80;20939;-87
2022/06/19 00:24:00;;;;;;;11.33;10.23;;;;;;;16.41;77.59;100971.70;1758948;80;20896;-86
2022/06/19 00:26:27;;;;;;;15.48;11.12;;;;;;;16.40;77.75;100967.35;1758643;81;21132;-85
2022/06/19 00:28:53;;;;;;;11.68;10.58;;;;;;;16.42;77.84;100969.89;1758793;80;20904;-85
2022/06/19 00:31:20;;;;;;;12.28;10.25;;;;;;;16.42;77.76;100977.83;1758669;81;21165;-86
2022/06/19 00:33:47;;;;;;;12.03;10.10;;;;;;;16.40;77.67;100972.65;1758761;80;21018;-86
2022/06/19 00:36:13;;;;;;;11.33;10.18;;;;;;;16.38;77.52;100967.95;1758804;80;21315;-87
2022/06/19 00:38:41;;;;;;;13.28;9.90;;;;;;;16.36;77.55;100966.77;1758552;80;20983;-85
2022/06/19 00:41:08;;;;;;;10.93;9.83;;;;;;;16.35;77.56;100970.86;1758811;81;20975;-86
2022/06/19 00:44:02;;;;;;;9.95;9.00;;;;;;;16.33;77.65;100970.97;1758737;80;21144;-87
2022/06/19 00:46:51;;;;;;;11.28;10.08;;;;;;;16.34;77.59;100975.77;1758538;80;20888;-83
2022/06/19 00:49:32;;;;;;;11.38;9.95;;;;;;;16.32;77.27;100979.88;1732577;80;20968;-86
2022/06/19 00:52:19;;;;;;;12.82;10.78;;;;;;;16.27;77.06;100975.41;1758686;80;20939;-85
2022/06/19 00:54:49;;;;;;;11.73;10.30;;;;;;;16.24;77.08;100977.47;1698075;83;20938;-87
2022/06/19 00:57:15;;;;;;;12.55;9.90;;;;;;;16.21;76.98;100978.56;1698362;83;21141;-86
2022/06/19 00:59:46;;;;;;;11.70;9.15;;;;;;;16.17;77.14;100978.44;1685850;84;20900;-86
2022/06/19 01:02:13;;;;;;;12.18;10.45;;;;;;;16.14;77.20;100978.66;1698459;84;21393;-86
2022/06/19 01:04:52;;;;;;;11.97;10.70;;;;;;;16.11;77.20;100978.41;1698235;83;20982;-86
2022/06/19 01:07:21;;;;;;;10.03;8.98;;;;;;;16.06;77.41;100983.23;1699321;84;21468;-86
2022/06/19 01:09:50;;;;;;;12.10;9.58;;;;;;;16.03;77.59;100978.19;1699378;83;22033;-86
2022/06/19 01:12:19;;;;;;;10.75;9.63;;;;;;;15.99;77.75;100979.37;1698962;82;20951;-87
2022/06/19 01:14:47;;;;;;;11.08;9.28;;;;;;;15.97;77.74;100980.46;1706339;84;20945;-85
2022/06/19 01:17:14;;;;;;;10.98;8.75;;;;;;;15.94;77.92;100983.70;1706493;84;21435;-84
2022/06/19 01:19:43;;;;;;;12.03;8.88;;;;;;;15.91;77.98;100988.38;1706396;84;20908;-85
2022/06/19 01:22:25;;;;;;;10.75;9.73;;;;;;;15.89;78.15;100990.29;1706409;84;21132;-87
2022/06/19 01:25:15;;;;;;;10.72;8.38;;;;;;;15.85;78.10;100985.73;1706255;84;20917;-86
2022/06/19 01:30:34;;;;;;;14.23;9.53;;;;;;;15.76;78.08;100995.66;1706532;82;20972;-85
2022/06/19 01:33:04;;;;;;;11.30;9.43;;;;;;;15.72;78.28;100994.23;1750757;81;20853;-87
2022/06/19 01:35:34;;;;;;;11.15;9.28;;;;;;;15.71;78.33;100999.98;1750955;81;21083;-87
2022/06/19 01:38:12;;;;;;;11.43;9.28;;;;;;;15.68;78.33;101002.84;1750941;81;21367;-86
2022/06/19 01:40:41;;;;;;;13.78;8.60;;;;;;;15.64;78.49;101004.02;1750770;80;20892;-86
2022/06/19 01:43:09;;;;;;;11.53;9.23;;;;;;;15.60;78.50;101002.56;1750686;81;20936;-86
2022/06/19 01:45:38;;;;;;;11.10;8.93;;;;;;;15.57;78.53;101006.77;1750675;81;21015;-86
2022/06/19 01:48:05;;;;;;;9.48;8.55;;;;;;;15.54;78.75;101003.88;1750528;80;21083;-87
2022/06/19 01:50:33;;;;;;;9.43;8.53;;;;;;;15.52;78.85;101002.31;1750592;81;20888;-85
2022/06/19 01:53:07;;;;;;;9.90;8.70;;;;;;;15.50;79.08;101008.19;1750779;82;20987;-85
2022/06/19 01:55:35;;;;;;;10.90;9.08;;;;;;;15.50;79.41;101013.48;1750496;81;20936;-86
2022/06/19 01:58:02;;;;;;;10.00;9.00;;;;;;;15.47;79.22;101017.66;1750651;81;20853;-85
2022/06/19 02:00:32;;;;;;;11.18;9.33;;;;;;;15.46;79.47;101009.38;1750872;80;21264;-87
2022/06/19 02:03:23;;;;;;;10.00;8.98;;;;;;;15.45;79.63;101012.50;1750515;80;20940;-86
2022/06/19 02:05:50;;;;;;;11.68;9.20;;;;;;;15.45;79.73;101012.95;1750709;82;20928;-85
2022/06/19 02:08:17;;;;;;;8.80;7.90;;;;;;;15.43;79.81;101006.94;1750736;82;20892;-84
2022/06/19 02:10:45;;;;;;;12.43;8.98;;;;;;;15.40;79.85;101009.33;1750902;81;21327;-86
2022/06/19 02:13:14;;;;;;;11.93;9.33;;;;;;;15.40;79.90;101009.82;1753646;80;21198;-86
2022/06/19 02:15:41;;;;;;;10.23;9.23;;;;;;;15.38;79.94;101011.24;1758238;80;21516;-86
2022/06/19 02:18:11;;;;;;;9.73;8.80;;;;;;;15.36;79.88;101012.31;1758500;80;21358;-87
2022/06/19 02:20:39;;;;;;;9.15;8.33;;;;;;;15.33;79.78;101016.87;1758501;81;21011;-86
2022/06/19 02:23:07;;;;;;;11.53;8.68;;;;;;;15.32;79.70;101024.94;1758374;80;20923;-87
2022/06/19 02:25:35;;;;;;;10.53;9.35;;;;;;;15.31;79.89;101021.42;1741833;81;21321;-86
2022/06/19 02:28:03;;;;;;;12.05;8.88;;;;;;;15.31;80.03;101020.59;1758382;81;20888;-87
2022/06/19 02:30:29;;;;;;;10.45;9.23;;;;;;;15.30;80.20;101021.07;1758364;81;20999;-87
2022/06/19 02:32:56;;;;;;;9.00;7.83;;;;;;;15.32;80.52;101029.73;1758196;80;20923;-86
2022/06/19 02:35:25;;;;;;;11.85;9.00;;;;;;;15.33;80.69;101035.38;1758523;80;20864;-87
2022/06/19 02:37:56;;;;;;;13.55;8.55;;;;;;;15.33;80.69;101035.38;1759160;81;21299;-86
2022/06/19 02:40:57;;;;;;;9.30;8.23;;;;;;;15.34;80.66;101038.88;1760729;80;20963;-87
2022/06/19 02:43:28;;;;;;;8.45;7.55;;;;;;;15.36;80.70;101036.10;1759020;81;21051;-87
2022/06/19 02:45:55;;;;;;;10.32;8.38;;;;;;;15.38;80.90;101048.73;1758889;81;20893;-86
2022/06/19 02:48:29;;;;;;;10.32;8.25;;;;;;;15.38;80.90;101048.73;1758495;80;20861;-86
2022/06/19 02:51:01;;;;;;;11.10;8.65;;;;;;;15.39;80.75;101047.30;1758454;80;21170;-87
2022/06/19 02:53:27;;;;;;;12.45;8.88;;;;;;;15.42;80.87;101043.59;1758386;81;21457;-87
2022/06/19 02:55:54;;;;;;;10.32;9.05;;;;;;;15.45;80.96;101044.67;1758906;81;20864;-87
2022/06/19 02:58:21;;;;;;;12.80;9.15;;;;;;;15.49;81.09;101044.81;1760367;78;20956;-86
2022/06/19 03:00:48;;;;;;;10.30;9.08;;;;;;;15.54;81.06;101045.34;1761780;78;21232;-86
2022/06/19 03:03:24;;;;;;;12.28;8.03;;;;;;;15.59;81.10;101047.16;1760791;78;21018;-86
2022/06/19 03:05:51;;;;;;;14.47;8.85;;;;;;;15.64;81.07;101049.45;1756882;78;21233;-86
2022/06/19 03:08:17;;;;;;;15.18;9.28;;;;;;;15.69;81.00;101044.17;1758329;81;20995;-87
2022/06/19 03:10:44;;;;;;;11.22;9.48;;;;;;;15.74;81.14;101045.20;1758757;80;20884;-86
2022/06/19 03:13:11;;;;;;;16.02;10.32;;;;;;;15.81;81.24;101046.42;1755606;81;20849;-86
2022/06/19 03:15:38;;;;;;;12.85;9.83;;;;;;;15.87;81.33;101049.08;1744868;81;21321;-84
2022/06/19 03:18:04;;;;;;;13.93;9.68;;;;;;;15.90;81.52;101040.44;1744892;81;20940;-87
2022/06/19 03:20:31;;;;;;;10.80;9.60;;;;;;;15.97;81.68;101042.14;1744951;82;20941;-86
2022/06/19 03:22:58;;;;;;;11.22;9.28;;;;;;;16.04;81.94;101043.34;1745211;81;21383;-87
2022/06/19 03:25:24;;;;;;;13.65;9.68;;;;;;;16.12;82.15;101037.00;1745254;81;20920;-87
2022/06/19 03:27:51;;;;;;;11.90;8.85;;;;;;;16.21;82.36;101041.20;1745194;81;21778;-86
2022/06/19 03:30:19;;;;;;;13.32;10.68;;;;;;;16.29;82.60;101046.76;1745011;81;21024;-86
2022/06/19 03:32:45;;;;;;;9.30;8.15;;;;;;;16.37;82.76;101052.31;1745189;81;20928;-87
2022/06/19 03:35:13;;;;;;;8.83;7.92;;;;;;;16.47;82.89;101048.45;1744865;81;20853;-86
2022/06/19 03:37:39;;;;;;;9.10;7.75;;;;;;;16.55;82.88;101050.87;1745115;81;20877;-86
2022/06/19 03:40:08;;;;;;;8.78;7.30;;;;;;;16.65;82.81;101058.95;1745761;81;21429;-86
2022/06/19 03:42:35;;;;;;;9.05;7.15;;;;;;;16.73;82.68;101059.66;1745015;81;21362;-87
2022/06/19 03:45:02;;;;;;;7.15;6.55;;;;;;;16.83;82.57;101066.41;1745901;82;20889;-87
2022/06/19 03:47:39;;;;;;;8.33;6.30;;;;;;;16.92;82.32;101064.39;1745479;81;20987;-87
2022/06/19 03:50:07;;;;;;;7.78;5.65;;;;;;;17.01;82.02;101066.75;1745953;81;21485;-87
2022/06/19 03:52:34;;;;;;;7.60;6.37;;;;;;;17.09;81.60;101069.64;1745786;81;21123;-87
2022/06/19 03:55:01;;;;;;;6.30;5.72;;;;;;;17.18;81.31;101079.50;1745559;81;20937;-85
2022/06/19 03:57:27;;;;;;;12.63;7.25;;;;;;;17.26;81.09;101077.57;1745245;81;20928;-87
2022/06/19 03:59:54;;;;;;;6.65;6.03;;;;;;;17.35;80.81;101078.98;1745282;81;20912;-87
2022/06/19 04:02:20;;;;;;;7.47;5.67;;;;;;;17.45;80.50;101079.06;1744918;81;20945;-86
2022/06/19 04:04:47;;;;;;;6.53;5.78;;;;;;;17.55;80.07;101083.98;1745042;81;21215;-87
2022/06/19 04:07:14;;;;;;;5.60;4.90;;;;;;;17.67;79.71;101082.13;1746572;78;21007;-86
2022/06/19 04:09:41;;;;;;;4.87;4.45;;;;;;;17.80;79.30;101084.11;1747874;78;21022;-86
2022/06/19 04:12:09;;;;;;;4.92;4.53;;;;;;;18.00;79.05;101089.11;1747561;78;21124;-85
2022/06/19 04:14:37;;;;;;;4.62;4.20;;;;;;;18.41;78.54;101079.47;1756720;78;20876;-88
2022/06/19 04:17:07;;;;;;;4.87;4.47;;;;;;;18.98;77.27;101082.52;1760932;78;21180;-87
2022/06/19 04:19:34;;;;;;;3.70;3.40;;;;;;;19.61;75.37;101084.88;1760786;78;20959;-88
2022/06/19 04:22:01;;;;;;;4.03;3.70;;;;;;;20.23;73.10;101094.75;1760725;78;20995;-85
2022/06/19 04:24:28;;;;;;;4.72;3.58;;;;;;;20.85;70.57;101092.47;1760704;78;21006;-87
2022/06/19 04:26:55;;;;;;;4.00;3.50;;;;;;;21.41;68.24;101087.96;1760787;78;20960;-87
2022/06/19 04:29:21;;;;;;;3.92;3.60;;;;;;;21.92;66.00;101089.56;1760805;78;21180;-86
2022/06/19 04:31:49;;;;;;;4.40;3.30;;;;;;;22.42;64.17;101088.95;1760800;78;20892;-85
2022/06/19 04:34:16;;;;;;;5.33;3.05;;;;;;;22.91;62.52;101087.86;1761470;81;20921;-85
2022/06/19 04:36:42;;;;;;;4.50;2.83;;;;;;;23.44;60.76;101087.20;1761275;78;20987;-85
2022/06/19 04:39:12;;;;;;;3.02;2.75;;;;;;;23.91;59.39;101085.26;1761180;78;20979;-85
2022/06/19 04:41:40;;;;;;;5.83;2.60;;;;;;;24.34;57.78;101094.41;1761571;78;21138;-86
2022/06/19 04:44:10;;;;;;;4.30;2.42;;;;;;;24.76;56.37;101089.30;1761422;81;20940;-86
2022/06/19 04:46:37;;;;;;;5.65;2.65;;;;;;;25.15;54.81;101089.80;1761328;80;20963;-87
2022/06/19 04:49:05;;;;;;;8.18;3.22;;;;;;;25.48;53.70;101086.44;1761271;81;20849;-85
2022/06/19 04:51:31;;;;;;;2.65;2.45;;;;;;;25.79;52.54;101093.09;1761451;81;21010;-86
2022/06/19 04:54:00;;;;;;;2.42;2.17;;;;;;;26.07;51.79;101093.88;1761224;78;21097;-86
2022/06/19 04:56:27;;;;;;;4.00;2.17;;;;;;;26.32;51.26;101090.94;1761501;78;20900;-86
2022/06/19 04:58:53;;;;;;;4.67;2.77;;;;;;;26.58;50.67;101092.70;1761491;78;20928;-86
2022/06/19 05:01:24;;;;;;;8.53;2.75;;;;;;;26.93;49.88;101097.52;1761494;78;20948;-86
2022/06/19 05:03:54;;;;;;;4.40;2.40;;;;;;;27.28;48.48;101095.89;1761541;78;20900;-87
2022/06/19 05:06:21;;;;;;;2.75;2.10;;;;;;;27.57;47.54;101092.25;1761397;78;21095;-86
2022/06/19 05:08:50;;;;;;;7.97;2.17;;;;;;;27.84;46.77;101092.00;1761443;78;20934;-87
2022/06/19 05:11:16;;;;;;;3.45;2.50;;;;;;;28.14;45.79;101097.73;1760888;81;20896;-87
2022/06/19 05:13:43;;;;;;;2.67;1.80;;;;;;;28.38;45.32;101087.00;1756542;80;20996;-87
2022/06/19 05:16:14;;;;;;;2.80;2.33;;;;;;;28.58;44.59;101093.89;1745325;81;20857;-87
2022/06/19 05:18:40;;;;;;;2.08;1.87;;;;;;;28.79;44.24;101093.80;1745081;81;21227;-86
2022/06/19 05:21:08;;;;;;;3.87;2.12;;;;;;;29.04;43.66;101085.17;1745155;82;20929;-85
2022/06/19 05:23:40;;;;;;;3.67;1.90;;;;;;;29.27;43.20;101086.20;1745228;82;20924;-88
2022/06/19 05:26:26;;;;;;;2.30;1.70;;;;;;;29.50;42.90;101083.97;1745423;80;21441;-88
2022/06/19 05:28:54;;;;;;;2.22;1.85;;;;;;;29.65;42.38;101091.05;1745131;81;20932;-86
2022/06/19 05:31:21;;;;;;;2.65;2.50;;;;;;;29.66;41.92;101092.69;1745144;81;21195;-88
2022/06/19 05:33:48;;;;;;;2.72;1.67;;;;;;;29.68;41.65;101091.50;1745082;80;21004;-88
2022/06/19 05:36:15;;;;;;;3.25;2.25;;;;;;;29.67;41.52;101090.31;1745107;81;20885;-87
2022/06/19 05:38:42;;;;;;;3.90;1.90;;;;;;;29.66;41.68;101100.80;1745051;81;20948;-87
2022/06/19 05:41:09;;;;;;;2.75;2.05;;;;;;;29.71;41.72;101098.36;1745366;81;20893;-88
2022/06/19 05:43:36;;;;;;;2.80;1.85;;;;;;;29.98;41.68;101091.61;1745048;81;21390;-88
2022/06/19 05:46:10;;;;;;;4.12;2.17;;;;;;;30.31;40.80;101097.84;1745132;81;20917;-87
2022/06/19 05:48:36;;;;;;;3.67;2.00;;;;;;;30.61;40.67;101097.87;1745210;81;21565;-88
2022/06/19 05:51:08;;;;;;;5.75;1.87;;;;;;;30.85;39.93;101105.80;1745054;81;20940;-89
2022/06/19 05:53:39;;;;;;;4.17;2.58;;;;;;;31.00;39.38;101102.87;1745537;81;20897;-87
2022/06/19 05:56:07;;;;;;;2.30;1.92;;;;;;;31.19;39.12;101108.69;1745177;81;20979;-87
2022/06/19 05:58:34;;;;;;;3.00;2.00;;;;;;;31.44;38.70;101104.73;1745235;81;20932;-87
2022/06/19 06:01:02;;;;;;;3.50;2.42;;;;;;;31.60;38.34;101108.27;1746626;82;20846;-86
2022/06/19 06:03:29;;;;;;;5.37;2.37;;;;;;;31.76;37.62;101102.00;1748116;81;20894;-86
2022/06/19 06:06:07;;;;;;;2.87;1.65;;;;;;;31.81;37.51;101100.80;1747287;78;20995;-87
2022/06/19 06:08:35;;;;;;;2.30;2.10;;;;;;;31.94;37.51;101102.04;1748053;78;21204;-88
2022/06/19 06:11:03;;;;;;;3.17;2.90;;;;;;;32.27;36.88;101105.55;1746303;80;21319;-87
2022/06/19 06:13:30;;;;;;;2.12;2.00;;;;;;;32.46;36.32;101096.37;1745336;80;20893;-89
2022/06/19 06:15:57;;;;;;;3.62;2.08;;;;;;;32.57;36.22;101097.00;1758953;80;20857;-86
2022/06/19 06:18:23;;;;;;;5.65;2.10;;;;;;;32.70;36.12;101093.81;1760468;81;20888;-88
2022/06/19 06:21:02;;;;;;;3.40;2.20;;;;;;;32.89;35.79;101090.56;1759309;81;21719;-89
2022/06/19 06:23:29;;;;;;;4.72;2.10;;;;;;;33.15;35.39;101085.30;1758748;81;20943;-88
2022/06/19 06:26:01;;;;;;;4.03;2.60;;;;;;;33.49;34.63;101082.41;1758731;81;21576;-87
2022/06/19 06:28:28;;;;;;;2.15;2.05;;;;;;;33.74;34.36;101083.59;1758983;81;20952;-89
2022/06/19 06:30:55;;;;;;;4.60;2.10;;;;;;;33.99;33.82;101079.83;1758770;80;20881;-87
2022/06/19 06:33:22;;;;;;;5.28;2.30;;;;;;;34.16;33.62;101082.70;1758874;81;21211;-89
2022/06/19 06:35:48;;;;;;;4.40;2.37;;;;;;;34.34;32.93;101083.09;1758301;81;20979;-88
2022/06/19 06:38:15;;;;;;;2.20;2.00;;;;;;;34.29;33.20;101078.91;1758319;81;20920;-90
2022/06/19 06:40:42;;;;;;;4.05;2.45;;;;;;;34.28;32.91;101085.41;1759312;80;20947;-86
2022/06/19 06:43:09;;;;;;;4.70;1.92;;;;;;;34.30;32.86;101076.47;1759913;80;20967;-86
2022/06/19 06:45:36;;;;;;;3.92;2.30;;;;;;;34.44;32.71;101083.30;1758855;81;21783;-87
2022/06/19 06:48:04;;;;;;;4.00;1.57;;;;;;;34.63;32.36;101071.75;1759027;81;20892;-86
2022/06/19 06:50:31;;;;;;;2.00;1.45;;;;;;;34.81;31.78;101074.29;1759352;81;20963;-87
2022/06/19 06:52:57;;;;;;;1.65;1.50;;;;;;;35.00;31.22;101076.30;1742155;81;20979;-89
2022/06/19 06:55:25;;;;;;;7.08;3.22;;;;;;;35.17;31.35;101081.81;1758798;81;20857;-87
2022/06/19 06:57:53;;;;;;;4.17;3.87;;;;;;;35.25;31.35;101082.78;1741926;81;21066;-89
2022/06/19 07:00:21;;;;;;;2.12;1.72;;;;;;;35.22;30.35;101081.92;1758566;81;21507;-90
2022/06/19 07:02:53;;;;;;;1.67;1.20;;;;;;;35.00;30.62;101077.67;1758548;80;20994;-89
2022/06/19 07:05:19;;;;;;;1.45;1.32;;;;;;;35.00;30.59;101080.39;1758795;81;20944;-89
2022/06/19 07:07:46;;;;;;;1.50;1.37;;;;;;;35.20;30.44;101077.80;1758805;81;20916;-89
2022/06/19 07:10:13;;;;;;;1.75;1.50;;;;;;;35.35;30.37;101072.61;1758520;80;21192;-89
2022/06/19 07:12:39;;;;;;;1.50;1.40;;;;;;;35.50;30.12;101069.30;1758901;80;20999;-87
2022/06/19 07:15:08;;;;;;;1.25;1.17;;;;;;;35.73;29.95;101069.72;1752105;80;20944;-86
2022/06/19 07:17:36;;;;;;;1.75;1.32;;;;;;;35.87;29.83;101075.11;1745263;81;20924;-85
2022/06/19 07:20:06;;;;;;;2.72;1.92;;;;;;;36.09;29.58;101070.25;1745448;81;20888;-88
2022/06/19 07:22:34;;;;;;;1.87;1.75;;;;;;;36.26;29.13;101074.32;1745758;81;21170;-89
2022/06/19 07:25:03;;;;;;;2.25;2.05;;;;;;;36.25;28.82;101076.78;1745259;81;21422;-89
2022/06/19 07:27:30;;;;;;;6.33;3.47;;;;;;;36.26;28.64;101083.36;1745292;82;21390;-90
2022/06/19 07:29:56;;;;;;;2.98;2.55;;;;;;;36.24;28.55;101085.52;1745492;81;20893;-90
2022/06/19 07:32:24;;;;;;;3.65;3.30;;;;;;;36.19;28.68;101085.42;1745550;81;21323;-89
2022/06/19 07:34:51;;;;;;;4.60;1.52;;;;;;;36.27;28.52;101085.00;1745408;81;21097;-89
2022/06/19 07:37:17;;;;;;;1.40;1.30;;;;;;;36.41;28.45;101081.90;1745711;81;21015;-88
2022/06/19 07:39:52;;;;;;;2.55;1.65;;;;;;;36.54;28.51;101084.80;1746025;81;20928;-90
2022/06/19 07:42:25;;;;;;;3.80;1.30;;;;;;;36.52;28.35;101079.58;1735756;82;20892;-89
2022/06/19 07:44:52;;;;;;;3.27;1.30;;;;;;;36.55;28.41;101083.70;1745433;81;20968;-89
2022/06/19 07:50:11;;;;;;;2.15;1.32;;;;;;;36.68;28.09;101074.61;1747816;78;20818;-89
2022/06/19 07:52:41;;;;;;;2.55;2.15;;;;;;;36.81;28.15;101073.39;1748045;78;20964;-89
2022/06/19 07:55:16;;;;;;;1.60;1.50;;;;;;;36.91;28.08;101079.53;1747638;78;21066;-90
2022/06/19 07:57:44;;;;;;;1.77;1.50;;;;;;;37.07;27.64;101077.23;1747694;78;21043;-88
2022/06/19 08:00:16;;;;;;;1.27;1.17;;;;;;;37.13;27.39;101074.02;1747192;78;21091;-90
2022/06/19 08:02:46;;;;;;;3.35;1.20;;;;;;;37.17;27.34;101075.16;1747814;78;21007;-90
2022/06/19 08:05:13;;;;;;;3.45;1.40;;;;;;;37.29;27.10;101070.36;1747176;78;20957;-90
2022/06/19 08:07:41;;;;;;;1.95;1.10;;;;;;;37.32;27.08;101062.98;1747899;78;21081;-90
2022/06/19 08:10:11;;;;;;;3.80;1.25;;;;;;;37.40;26.85;101063.59;1747899;78;20842;-89
2022/06/19 08:12:39;;;;;;;4.75;2.42;;;;;;;37.49;27.17;101062.05;1747932;78;20916;-89
2022/06/19 08:15:07;;;;;;;1.98;1.47;;;;;;;37.61;26.26;101061.89;1747419;78;20861;-88
2022/06/19 08:17:35;;;;;;;34.88;31.75;;;;;;;37.60;26.45;101062.44;1748010;78;20968;-89
2022/06/19 08:20:02;;;;;;;4.58;3.20;;;;;;;37.66;26.33;101060.55;1747691;78;20857;-89
2022/06/19 08:22:30;;;;;;;3.40;2.90;;;;;;;37.70;26.37;101063.05;1748164;78;20948;-90
2022/06/19 08:24:56;;;;;;;2.02;1.37;;;;;;;37.69;26.47;101053.20;1747669;78;21349;-87
2022/06/19 08:27:25;;;;;;;6.35;4.97;;;;;;;37.60;26.18;101056.97;1748087;79;20882;-87
2022/06/19 08:29:51;;;;;;;2.30;1.77;;;;;;;37.62;26.35;101053.95;1747657;79;21450;-89
2022/06/19 08:32:19;;;;;;;2.80;1.40;;;;;;;37.61;25.97;101059.16;1748336;78;20961;-88
2022/06/19 08:34:46;;;;;;;4.00;1.80;;;;;;;37.55;26.00;101051.44;1748351;81;20941;-88
2022/06/19 08:37:13;;;;;;;4.90;2.52;;;;;;;37.59;26.19;101052.56;1747969;81;21220;-88
2022/06/19 08:39:39;;;;;;;4.35;1.17;;;;;;;37.71;25.81;101052.40;1747964;81;21003;-88
2022/06/19 08:42:35;;;;;;;3.20;2.52;;;;;;;37.81;25.62;101057.92;1738071;80;20963;-89
2022/06/19 08:45:42;;;;;;;4.20;1.20;;;;;;;37.93;24.92;101057.72;1747927;78;20924;-88
2022/06/19 08:48:21;;;;;;;1.40;1.20;;;;;;;38.01;24.34;101054.48;1746753;78;20980;-89
2022/06/19 08:51:26;;;;;;;1.20;1.20;;;;;;;38.12;24.23;101052.66;1745891;81;21313;-89
2022/06/19 08:54:30;;;;;;;2.08;1.20;;;;;;;38.18;24.32;101050.76;1724747;81;21051;-89
2022/06/19 08:57:38;;;;;;;1.70;1.10;;;;;;;38.08;23.28;101052.36;1734931;81;20953;-89
2022/06/19 09:00:10;;;;;;;2.20;1.30;;;;;;;37.93;24.05;101046.23;1745652;81;20897;-89
2022/06/19 09:03:23;;;;;;;2.55;1.35;;;;;;;37.77;24.76;101045.84;1746972;81;20948;-89
2022/06/19 09:06:00;;;;;;;2.62;1.25;;;;;;;37.74;24.39;101040.36;1726087;81;21173;-85
2022/06/19 09:09:00;;;;;;;1.27;1.15;;;;;;;37.79;24.70;101045.04;1747674;81;20917;-86
2022/06/19 09:11:53;;;;;;;0.93;0.93;;;;;;;37.79;24.96;101039.56;1746857;81;20944;-87
2022/06/19 09:14:44;;;;;;;1.32;1.17;;;;;;;37.95;25.08;101045.44;1745858;81;20976;-89
2022/06/19 09:17:24;;;;;;;0.70;0.70;;;;;;;38.05;23.86;101040.58;1754431;82;20935;-87
2022/06/19 09:20:01;;;;;;;1.50;1.22;;;;;;;38.05;23.61;101039.20;1753836;80;21147;-89
2022/06/19 09:22:56;;;;;;;0.85;0.85;;;;;;;38.08;23.44;101041.41;1753906;82;21073;-89
2022/06/19 09:26:08;;;;;;;2.35;1.00;;;;;;;38.19;23.52;101034.06;1754265;80;20915;-89
2022/06/19 09:28:41;;;;;;;1.25;1.00;;;;;;;38.21;23.38;101031.88;1754113;82;20954;-88
2022/06/19 09:31:31;;;;;;;1.22;1.12;;;;;;;38.25;23.82;101033.00;1754276;80;20986;-89
2022/06/19 09:34:10;;;;;;;1.40;0.93;;;;;;;38.32;23.78;101031.39;1754461;80;20931;-90
2022/06/19 09:36:56;;;;;;;1.60;1.15;;;;;;;38.40;23.68;101028.66;1750779;80;21790;-87
2022/06/19 09:39:49;;;;;;;1.40;1.25;;;;;;;38.55;23.61;101021.89;1737422;82;21426;-90
2022/06/19 09:42:42;;;;;;;2.62;1.07;;;;;;;38.66;23.78;101024.94;1754688;82;20935;-88
2022/06/19 09:45:29;;;;;;;1.05;0.95;;;;;;;38.79;23.53;101023.60;1755671;81;20915;-86
2022/06/19 09:48:17;;;;;;;2.95;0.93;;;;;;;38.47;23.32;101030.63;1756287;78;21126;-88
2022/06/19 09:51:09;;;;;;;3.58;1.02;;;;;;;38.00;23.80;101025.47;1756192;78;20884;-88
2022/06/19 09:53:45;;;;;;;2.30;1.15;;;;;;;37.73;24.46;101020.08;1756308;82;20868;-87
2022/06/19 09:56:36;;;;;;;1.32;1.10;;;;;;;37.43;24.36;101016.57;1755754;78;21073;-89
2022/06/19 09:59:23;;;;;;;5.17;1.47;;;;;;;37.00;24.62;100998.69;1751922;78;21014;-86
2022/06/19 10:01:56;;;;;;;2.10;1.90;;;;;;;36.97;24.97;101018.88;1754830;81;21201;-90
2022/06/19 10:04:33;;;;;;;6.85;4.72;;;;;;;36.85;25.13;101020.41;1754681;80;20899;-89
2022/06/19 10:07:02;;;;;;;6.60;5.53;;;;;;;36.62;25.15;101017.41;1754423;82;20990;-90
2022/06/19 10:09:53;;;;;;;2.58;1.42;;;;;;;36.48;25.67;101018.32;1754640;82;20971;-88
2022/06/19 10:12:31;;;;;;;3.45;1.27;;;;;;;36.49;25.47;101011.24;1754717;82;20911;-89
2022/06/19 10:15:02;;;;;;;1.30;1.20;;;;;;;36.62;25.86;101013.31;1754053;80;21496;-89
2022/06/19 10:18:00;;;;;;;5.10;1.10;;;;;;;36.56;25.69;101006.13;1746505;81;20945;-88
2022/06/19 10:21:03;;;;;;;2.62;1.60;;;;;;;36.57;25.78;101014.05;1746032;80;20857;-90
2022/06/19 10:23:55;;;;;;;0.88;0.80;;;;;;;36.70;25.49;101012.31;1693584;83;21469;-90
2022/06/19 10:26:48;;;;;;;2.87;1.23;;;;;;;36.88;24.79;101004.30;1694006;83;21000;-88
2022/06/19 10:29:46;;;;;;;0.80;0.80;;;;;;;36.92;24.43;100998.59;1693731;83;21115;-89
2022/06/19 10:32:40;;;;;;;0.88;0.78;;;;;;;37.04;24.53;100988.03;1693803;83;20923;-91
2022/06/19 10:35:39;;;;;;;1.98;1.00;;;;;;;37.20;24.34;100990.38;1695186;84;20954;-90
2022/06/19 10:38:35;;;;;;;1.87;0.88;;;;;;;37.37;24.22;100984.23;1694261;83;20923;-91
2022/06/19 10:44:24;;;;;;;3.20;1.67;;;;;;;37.66;22.88;100974.33;1693578;84;21822;-90
2022/06/19 10:46:59;;;;;;;3.12;2.92;;;;;;;37.64;23.40;100983.34;1693446;83;20995;-90
2022/06/19 10:49:39;;;;;;;6.17;4.75;;;;;;;37.63;23.22;100985.27;1678268;83;21567;-90
2022/06/19 10:52:14;;;;;;;3.62;1.42;;;;;;;37.54;23.64;100993.11;1692435;83;20971;-91
2022/06/19 10:55:05;;;;;;;4.95;4.35;;;;;;;37.51;23.94;100988.17;1694006;83;21487;-91
2022/06/19 10:58:04;;;;;;;1.40;1.02;;;;;;;37.50;23.39;100991.17;1693791;83;21111;-92
2022/06/19 11:00:30;;;;;;;1.55;0.95;;;;;;;37.38;23.55;100989.18;1725294;81;20984;-90
2022/06/19 11:06:04;;;;;;;1.05;0.90;;;;;;;37.27;23.87;100980.88;1745692;81;20897;-89
2022/06/19 11:08:34;;;;;;;;;;;;;;;37.14;23.69;100977.22;1748504;81;20983;-92
2022/06/19 11:10:59;;;;;;;1.25;0.90;;;;;;;37.02;23.91;100981.48;1735005;80;22206;-91
2022/06/19 11:13:59;;;;;;;1.87;1.20;;;;;;;36.81;24.07;100983.18;1745832;81;20988;-91
2022/06/19 11:16:30;;;;;;;1.90;1.80;;;;;;;36.56;24.73;100982.90;1745554;80;20988;-90
2022/06/19 11:18:57;;;;;;;1.40;0.78;;;;;;;36.21;24.21;100978.12;1745691;81;20945;-91
2022/06/19 11:21:33;;;;;;;1.85;0.75;;;;;;;35.82;24.62;100978.14;1745930;81;20850;-91
2022/06/19 11:24:05;;;;;;;1.40;0.82;;;;;;;35.58;24.77;100978.86;1746129;81;21578;-91
2022/06/19 11:26:45;;;;;;;4.70;1.17;;;;;;;35.36;24.84;100977.97;1745804;80;20940;-90
2022/06/19 11:29:20;;;;;;;0.95;0.82;;;;;;;35.22;25.18;100972.84;1746156;81;20957;-90
2022/06/19 11:32:13;;;;;;;0.65;0.65;;;;;;;35.04;25.46;100968.43;1746598;82;20940;-90
2022/06/19 11:34:44;;;;;;;1.70;1.12;;;;;;;34.84;25.53;100967.53;1746451;81;20984;-88
2022/06/19 11:37:28;;;;;;;1.30;1.10;;;;;;;34.38;25.75;100966.63;1746245;81;22217;-91
2022/06/19 11:40:11;;;;;;;;;;;;;;;33.89;26.24;100962.05;1749188;81;20881;-90
2022/06/19 11:42:50;;;;;;;2.27;1.47;;;;;;;33.37;27.47;100960.54;1744805;81;20081;-91
2022/06/19 11:45:34;;;;;;;1.40;1.10;;;;;;;32.89;28.26;100965.04;1744794;81;20999;-90
2022/06/19 11:48:13;;;;;;;3.25;1.17;;;;;;;32.48;29.18;100967.14;1746026;81;20968;-90
2022/06/19 11:50:50;;;;;;;1.98;0.93;;;;;;;32.15;29.25;100964.30;1746157;81;21912;-89
2022/06/19 11:53:24;;;;;;;2.10;1.90;;;;;;;31.96;30.03;100962.92;1746066;81;20846;-89
2022/06/19 11:56:14;;;;;;;6.97;6.30;;;;;;;31.88;30.23;100963.75;1746316;81;20952;-92
2022/06/19 11:58:44;;;;;;;3.98;2.37;;;;;;;31.80;30.57;100963.53;1746044;81;20980;-90
2022/06/19 12:01:18;;;;;;;3.22;1.27;;;;;;;31.70;30.47;100963.20;1746402;82;20991;-89